createdAt,value
2019-02-25T00:01:34.283Z,28.00
2019-02-25T00:03:54.572Z,29.12
2019-02-25T00:06:15.830Z,27.00
2019-02-25T00:08:36.154Z,28.07
2019-02-25T00:10:57.383Z,32.15
2019-02-25T00:13:17.736Z,29.82
2019-02-25T00:15:37.982Z,27.58
2019-02-25T00:17:58.435Z,29.67
2019-02-25T00:20:18.719Z,35.80
2019-02-25T00:22:39.001Z,26.68
2019-02-25T00:24:59.346Z,27.30
2019-02-25T00:27:19.602Z,25.65
2019-02-25T00:29:39.873Z,29.00
2019-02-25T00:32:00.118Z,29.92
2019-02-25T00:34:20.410Z,28.20
2019-02-25T00:36:40.672Z,35.08
2019-02-25T00:39:00.957Z,36.98
2019-02-25T00:41:22.918Z,32.35
2019-02-25T00:43:43.190Z,34.65
2019-02-25T00:46:03.493Z,36.63
2019-02-25T00:48:23.764Z,37.65
2019-02-25T00:50:44.099Z,32.17
2019-02-25T00:53:04.401Z,33.85
2019-02-25T00:55:24.786Z,33.50
2019-02-25T00:57:45.043Z,33.70
2019-02-25T01:00:08.561Z,33.48
2019-02-25T01:02:28.844Z,30.37
2019-02-25T01:04:49.111Z,34.75
2019-02-25T01:07:09.426Z,32.40
2019-02-25T01:09:29.731Z,36.73
2019-02-25T01:11:49.978Z,31.55
2019-02-25T01:14:10.254Z,27.87
2019-02-25T01:16:30.524Z,27.90
2019-02-25T01:18:50.783Z,31.75
2019-02-25T01:21:11.106Z,28.98
2019-02-25T01:23:31.435Z,31.05
2019-02-25T01:25:51.698Z,31.27
2019-02-25T01:28:12.134Z,31.15
2019-02-25T01:30:32.532Z,34.95
2019-02-25T01:32:52.823Z,31.95
2019-02-25T01:35:13.536Z,31.52
2019-02-25T01:37:34.906Z,32.85
2019-02-25T01:39:55.292Z,29.40
2019-02-25T01:42:15.614Z,29.92
2019-02-25T01:44:35.902Z,34.23
2019-02-25T01:46:56.170Z,30.48
2019-02-25T01:49:16.486Z,34.53
2019-02-25T01:51:36.778Z,31.17
2019-02-25T01:53:57.117Z,33.10
2019-02-25T01:56:17.475Z,30.68
2019-02-25T01:58:37.767Z,30.62
2019-02-25T02:00:58.115Z,28.12
2019-02-25T02:03:18.442Z,35.28
2019-02-25T02:05:38.727Z,33.25
2019-02-25T02:07:59.024Z,32.63
2019-02-25T02:10:19.308Z,33.08
2019-02-25T02:12:39.721Z,32.05
2019-02-25T02:15:00.017Z,35.60
2019-02-25T02:17:20.273Z,33.35
2019-02-25T02:19:40.535Z,36.38
2019-02-25T02:22:00.820Z,28.70
2019-02-25T02:24:21.153Z,29.25
2019-02-25T02:26:41.423Z,29.45
2019-02-25T02:29:02.645Z,30.17
2019-02-25T02:31:22.902Z,32.23
2019-02-25T02:33:43.190Z,31.25
2019-02-25T02:36:03.480Z,28.45
2019-02-25T02:38:23.735Z,34.90
2019-02-25T02:40:44.048Z,33.53
2019-02-25T02:43:04.310Z,29.05
2019-02-25T02:45:46.261Z,32.83
2019-02-25T02:48:12.759Z,29.77
2019-02-25T02:50:33.033Z,32.88
2019-02-25T02:52:53.319Z,32.30
2019-02-25T02:55:13.648Z,31.82
2019-02-25T02:57:33.936Z,34.03
2019-02-25T02:59:54.218Z,33.85
2019-02-25T03:02:14.482Z,33.23
2019-02-25T03:04:34.761Z,29.52
2019-02-25T03:06:55.036Z,31.87
2019-02-25T03:09:15.365Z,31.02
2019-02-25T03:11:35.639Z,30.37
2019-02-25T03:13:55.938Z,30.60
2019-02-25T03:16:16.188Z,27.30
2019-02-25T03:18:36.506Z,28.10
2019-02-25T03:20:57.113Z,27.62
2019-02-25T03:23:17.381Z,28.20
2019-02-25T03:25:37.641Z,26.73
2019-02-25T03:27:57.917Z,29.67
2019-02-25T03:30:21.671Z,29.50
2019-02-25T03:32:41.999Z,27.93
2019-02-25T03:35:02.311Z,25.48
2019-02-25T03:37:22.588Z,24.40
2019-02-25T03:39:43.039Z,27.05
2019-02-25T03:42:03.408Z,25.02
2019-02-25T03:44:23.739Z,28.10
2019-02-25T03:46:44.091Z,30.08
2019-02-25T03:49:04.409Z,26.82
2019-02-25T03:51:24.667Z,30.00
2019-02-25T03:53:45.018Z,25.97
2019-02-25T03:56:05.359Z,29.57
2019-02-25T03:58:25.705Z,24.43
2019-02-25T04:00:45.953Z,25.05
2019-02-25T04:03:06.219Z,29.48
2019-02-25T04:05:26.932Z,31.80
2019-02-25T04:07:47.250Z,30.10
2019-02-25T04:10:09.806Z,24.60
2019-02-25T04:12:29.805Z,18.55
2019-02-25T04:14:50.154Z,23.00
2019-02-25T04:17:10.406Z,24.27
2019-02-25T04:19:30.695Z,21.50
2019-02-25T04:21:51.004Z,22.80
2019-02-25T04:24:11.352Z,28.07
2019-02-25T04:26:31.621Z,25.75
2019-02-25T04:28:51.878Z,23.95
2019-02-25T04:31:12.186Z,28.27
2019-02-25T04:33:32.494Z,27.02
2019-02-25T04:35:53.579Z,24.20
2019-02-25T04:38:14.125Z,24.72
2019-02-25T04:40:34.838Z,27.93
2019-02-25T04:42:55.163Z,26.12
2019-02-25T04:45:17.503Z,27.85
2019-02-25T04:47:37.553Z,21.07
2019-02-25T04:49:58.811Z,26.95
2019-02-25T04:52:19.210Z,30.23
2019-02-25T04:54:39.545Z,34.10
2019-02-25T04:56:59.915Z,33.15
2019-02-25T04:59:20.289Z,29.87
2019-02-25T05:01:40.558Z,25.77
2019-02-25T05:04:00.842Z,29.35
2019-02-25T05:06:21.170Z,29.10
2019-02-25T05:08:41.772Z,34.65
2019-02-25T05:11:02.076Z,33.70
2019-02-25T05:13:22.423Z,29.80
2019-02-25T05:15:42.778Z,34.85
2019-02-25T05:18:03.028Z,28.17
2019-02-25T05:20:24.298Z,33.18
2019-02-25T05:22:44.554Z,24.70
2019-02-25T05:25:07.537Z,23.65
2019-02-25T05:27:27.520Z,28.98
2019-02-25T05:29:48.112Z,26.73
2019-02-25T05:32:08.476Z,23.52
2019-02-25T05:34:28.734Z,26.30
2019-02-25T05:36:48.984Z,26.05
2019-02-25T05:39:09.252Z,28.35
2019-02-25T05:41:29.718Z,30.80
2019-02-25T05:43:49.966Z,31.52
2019-02-25T05:46:10.242Z,28.00
2019-02-25T05:48:30.580Z,32.60
2019-02-25T05:50:50.909Z,25.90
2019-02-25T05:53:11.192Z,30.25
2019-02-25T05:55:31.511Z,28.00
2019-02-25T05:57:51.770Z,28.25
2019-02-25T06:00:16.820Z,30.80
2019-02-25T06:02:37.113Z,35.63
2019-02-25T06:04:57.425Z,38.85
2019-02-25T06:07:17.682Z,32.75
2019-02-25T06:09:38.083Z,38.80
2019-02-25T06:11:58.392Z,30.57
2019-02-25T06:14:18.770Z,30.10
2019-02-25T06:16:39.030Z,36.03
2019-02-25T06:18:59.382Z,29.10
2019-02-25T06:21:19.661Z,30.05
2019-02-25T06:23:40.963Z,29.00
2019-02-25T06:26:01.375Z,27.17
2019-02-25T06:28:21.685Z,36.15
2019-02-25T06:30:42.006Z,31.33
2019-02-25T06:33:02.379Z,22.05
2019-02-25T06:35:22.741Z,30.40
2019-02-25T06:37:43.130Z,22.07
2019-02-25T06:40:03.524Z,34.80
2019-02-25T06:42:23.785Z,31.60
2019-02-25T06:44:44.244Z,27.55
2019-02-25T06:47:04.528Z,28.60
2019-02-25T06:49:24.894Z,39.13
2019-02-25T06:51:45.242Z,25.70
2019-02-25T06:54:05.588Z,30.17
2019-02-25T06:56:25.877Z,34.10
2019-02-25T06:58:46.144Z,30.10
2019-02-25T07:01:06.417Z,27.42
2019-02-25T07:03:26.994Z,26.33
2019-02-25T07:05:51.786Z,29.00
2019-02-25T07:08:13.709Z,28.77
2019-02-25T07:10:41.568Z,37.53
2019-02-25T07:13:06.272Z,29.42
2019-02-25T07:15:28.296Z,29.02
2019-02-25T07:17:50.301Z,22.48
2019-02-25T07:20:12.253Z,29.37
2019-02-25T07:22:36.971Z,34.75
2019-02-25T07:24:59.002Z,26.75
2019-02-25T07:27:21.599Z,27.37
2019-02-25T07:29:59.542Z,27.85
2019-02-25T07:32:24.406Z,28.67
2019-02-25T07:34:46.328Z,25.62
2019-02-25T07:37:14.258Z,24.40
2019-02-25T07:39:52.263Z,37.25
2019-02-25T07:42:17.193Z,22.25
2019-02-25T07:44:48.522Z,24.72
2019-02-25T07:47:10.495Z,24.32
2019-02-25T07:49:47.506Z,32.35
2019-02-25T07:52:21.661Z,24.77
2019-02-25T07:54:58.530Z,24.55
2019-02-25T07:57:38.939Z,33.10
2019-02-25T08:00:03.659Z,22.62
2019-02-25T08:02:27.095Z,22.42
2019-02-25T08:04:49.058Z,25.92
2019-02-25T08:07:28.905Z,24.85
2019-02-25T08:09:53.774Z,23.40
2019-02-25T08:12:32.122Z,29.50
2019-02-25T08:15:00.048Z,31.50
2019-02-25T08:17:37.010Z,30.68
2019-02-25T08:20:08.010Z,26.65
2019-02-25T08:22:41.620Z,28.07
2019-02-25T08:27:32.289Z,31.05
2019-02-25T08:29:57.262Z,26.42
2019-02-25T08:32:26.400Z,35.17
2019-02-25T08:35:05.587Z,30.27
2019-02-25T08:37:33.334Z,30.40
2019-02-25T08:40:38.932Z,29.12
2019-02-25T08:43:06.253Z,28.47
2019-02-25T08:45:37.240Z,29.80
2019-02-25T08:47:59.136Z,28.05
2019-02-25T08:50:19.473Z,29.90
2019-02-25T08:52:39.762Z,30.65
2019-02-25T08:55:00.321Z,33.28
2019-02-25T08:57:20.822Z,26.27
2019-02-25T08:59:41.527Z,25.80
2019-02-25T09:02:02.020Z,23.70
2019-02-25T09:04:22.555Z,21.93
2019-02-25T09:06:42.841Z,22.25
2019-02-25T09:09:04.083Z,30.65
2019-02-25T09:11:25.553Z,28.65
2019-02-25T09:13:45.940Z,23.22
2019-02-25T09:16:06.272Z,30.68
2019-02-25T09:18:26.534Z,20.35
2019-02-25T09:20:47.891Z,23.77
2019-02-25T09:23:08.262Z,23.32
2019-02-25T09:25:28.575Z,31.68
2019-02-25T09:27:48.962Z,23.45
2019-02-25T09:30:12.391Z,23.77
2019-02-25T09:32:34.055Z,22.05
2019-02-25T09:34:54.313Z,25.43
2019-02-25T09:37:14.577Z,21.57
2019-02-25T09:39:35.019Z,24.43
2019-02-25T09:41:56.587Z,24.60
2019-02-25T09:44:16.866Z,17.77
2019-02-25T09:46:37.217Z,21.40
2019-02-25T09:48:57.633Z,23.80
2019-02-25T09:51:17.960Z,21.77
2019-02-25T09:53:38.336Z,18.98
2019-02-25T09:55:58.753Z,25.80
2019-02-25T09:58:19.040Z,23.95
2019-02-25T10:00:39.349Z,21.30
2019-02-25T10:02:59.685Z,21.40
2019-02-25T10:05:20.045Z,18.75
2019-02-25T10:07:41.490Z,22.90
2019-02-25T10:10:01.810Z,16.15
2019-02-25T10:12:22.166Z,19.82
2019-02-25T10:14:42.550Z,17.48
2019-02-25T10:17:02.914Z,18.98
2019-02-25T10:19:23.182Z,21.20
2019-02-25T10:21:43.483Z,15.32
2019-02-25T10:24:03.918Z,16.00
2019-02-25T10:26:24.201Z,18.05
2019-02-25T10:28:44.011Z,17.32
2019-02-25T10:31:03.754Z,18.48
2019-02-25T10:33:24.093Z,14.83
2019-02-25T10:35:44.403Z,18.90
2019-02-25T10:38:06.576Z,19.73
2019-02-25T10:40:27.567Z,17.92
2019-02-25T10:42:47.965Z,21.40
2019-02-25T10:45:13.053Z,20.25
2019-02-25T10:47:32.443Z,25.60
2019-02-25T10:49:52.148Z,19.15
2019-02-25T10:52:13.351Z,19.37
2019-02-25T10:54:34.037Z,21.95
2019-02-25T10:56:55.855Z,17.20
2019-02-25T10:59:16.257Z,18.60
2019-02-25T11:01:37.531Z,20.02
2019-02-25T11:03:58.076Z,21.62
2019-02-25T11:06:18.436Z,19.17
2019-02-25T11:08:41.488Z,26.20
2019-02-25T11:11:07.044Z,18.45
2019-02-25T11:13:27.628Z,24.98
2019-02-25T11:15:49.379Z,22.55
2019-02-25T11:18:10.736Z,26.45
2019-02-25T11:20:31.844Z,20.08
2019-02-25T11:22:54.889Z,26.30
2019-02-25T11:25:15.669Z,20.00
2019-02-25T11:27:37.722Z,18.05
2019-02-25T11:29:59.713Z,20.37
2019-02-25T11:32:25.821Z,16.15
2019-02-25T11:34:46.312Z,14.15
2019-02-25T11:37:06.584Z,19.05
2019-02-25T11:39:27.575Z,13.75
2019-02-25T11:41:48.867Z,20.02
2019-02-25T11:44:09.255Z,15.68
2019-02-25T11:46:29.651Z,17.80
2019-02-25T11:48:50.032Z,14.10
2019-02-25T11:51:09.829Z,14.05
2019-02-25T11:53:29.552Z,15.72
2019-02-25T11:55:49.962Z,12.18
2019-02-25T11:58:09.663Z,12.90
2019-02-25T12:00:29.975Z,12.85
2019-02-25T12:02:50.068Z,11.13
2019-02-25T12:05:10.775Z,13.17
2019-02-25T12:07:30.861Z,14.97
2019-02-25T12:09:50.967Z,12.50
2019-02-25T12:12:11.034Z,14.60
2019-02-25T12:14:32.187Z,9.67
2019-02-25T12:16:52.278Z,14.80
2019-02-25T12:19:17.959Z,11.47
2019-02-25T12:21:34.177Z,13.87
2019-02-25T12:23:54.295Z,11.63
2019-02-25T12:26:14.366Z,12.20
2019-02-25T12:28:34.461Z,12.50
2019-02-25T12:30:54.660Z,13.10
2019-02-25T12:33:14.730Z,10.67
2019-02-25T12:35:34.832Z,11.93
2019-02-25T12:37:54.956Z,12.70
2019-02-25T12:40:18.337Z,16.60
2019-02-25T12:42:38.329Z,15.33
2019-02-25T12:44:58.758Z,15.73
2019-02-25T12:47:18.867Z,14.43
2019-02-25T12:49:38.962Z,13.50
2019-02-25T12:52:02.915Z,13.30
2019-02-25T12:54:22.737Z,12.90
2019-02-25T12:56:42.880Z,18.03
2019-02-25T12:59:05.090Z,16.43
2019-02-25T13:01:24.574Z,11.43
2019-02-25T13:03:44.612Z,13.97
2019-02-25T13:06:04.701Z,16.17
2019-02-25T13:08:24.778Z,13.73
2019-02-25T13:10:44.975Z,17.57
2019-02-25T13:13:05.078Z,15.60
2019-02-25T13:15:25.158Z,13.90
2019-02-25T13:17:45.238Z,15.17
2019-02-25T13:20:08.496Z,12.30
2019-02-25T13:22:28.545Z,11.27
2019-02-25T13:24:48.618Z,14.93
2019-02-25T13:27:11.059Z,13.83
2019-02-25T13:29:31.858Z,12.93
2019-02-25T13:31:52.424Z,11.87
2019-02-25T13:34:12.941Z,14.37
2019-02-25T13:36:33.406Z,10.67
2019-02-25T13:38:53.461Z,11.27
2019-02-25T13:41:13.645Z,14.80
2019-02-25T13:43:34.177Z,8.00
2019-02-25T13:45:54.669Z,11.27
2019-02-25T13:48:15.016Z,11.60
2019-02-25T13:50:35.322Z,13.30
2019-02-25T13:52:55.599Z,11.37
2019-02-25T13:55:20.663Z,11.17
2019-02-25T13:57:41.270Z,9.97
2019-02-25T14:00:01.698Z,10.83
2019-02-25T14:02:22.028Z,12.03
2019-02-25T14:04:42.495Z,13.43
2019-02-25T14:07:02.842Z,10.50
2019-02-25T14:09:23.153Z,10.83
2019-02-25T14:11:44.435Z,10.13
2019-02-25T14:14:05.508Z,10.37
2019-02-25T14:16:26.640Z,10.53
2019-02-25T14:18:46.889Z,10.00
2019-02-25T14:21:07.396Z,11.40
2019-02-25T14:23:27.791Z,12.50
2019-02-25T14:25:48.858Z,11.77
2019-02-25T14:28:09.229Z,13.97
2019-02-25T14:30:32.690Z,14.90
2019-02-25T14:32:53.421Z,9.87
2019-02-25T14:35:13.907Z,11.28
2019-02-25T14:37:34.364Z,15.80
2019-02-25T14:39:56.321Z,12.80
2019-02-25T14:42:18.893Z,13.80
2019-02-25T14:44:41.276Z,13.50
2019-02-25T14:47:02.954Z,12.67
2019-02-25T14:49:23.044Z,10.90
2019-02-25T14:51:43.313Z,12.93
2019-02-25T14:54:03.670Z,18.03
2019-02-25T14:56:24.291Z,17.10
2019-02-25T14:58:45.601Z,12.80
2019-02-25T15:01:06.931Z,11.30
2019-02-25T15:03:28.747Z,15.27
2019-02-25T15:05:50.228Z,17.20
2019-02-25T15:08:11.801Z,10.57
2019-02-25T15:10:33.953Z,13.10
2019-02-25T15:12:58.533Z,10.20
2019-02-25T15:15:18.573Z,11.28
2019-02-25T15:17:38.871Z,9.65
2019-02-25T15:19:59.487Z,13.00
2019-02-25T15:22:19.552Z,17.27
2019-02-25T15:24:44.136Z,16.32
2019-02-25T15:27:04.375Z,15.63
2019-02-25T15:29:24.080Z,19.85
2019-02-25T15:31:46.304Z,15.58
2019-02-25T15:34:06.950Z,11.40
2019-02-25T15:36:29.071Z,14.50
2019-02-25T15:38:50.014Z,14.95
2019-02-25T15:41:11.271Z,14.03
2019-02-25T15:43:31.994Z,16.93
2019-02-25T15:45:52.722Z,15.32
2019-02-25T15:48:15.731Z,13.28
2019-02-25T15:50:36.104Z,17.23
2019-02-25T15:53:00.768Z,14.60
2019-02-25T15:55:21.166Z,13.78
2019-02-25T15:57:42.532Z,17.23
2019-02-25T16:00:03.524Z,15.40
2019-02-25T16:02:24.166Z,14.98
2019-02-25T16:04:44.893Z,21.65
2019-02-25T16:07:10.432Z,17.35
2019-02-25T16:09:31.572Z,12.07
2019-02-25T16:11:53.429Z,20.37
2019-02-25T16:14:14.049Z,19.85
2019-02-25T16:16:34.695Z,14.60
2019-02-25T16:18:55.404Z,16.67
2019-02-25T16:21:16.125Z,10.75
2019-02-25T16:23:40.591Z,12.98
2019-02-25T16:26:01.532Z,13.00
2019-02-25T16:28:22.074Z,18.40
2019-02-25T16:30:44.437Z,16.17
2019-02-25T16:33:07.274Z,16.17
2019-02-25T16:35:27.215Z,19.48
2019-02-25T16:37:50.855Z,20.50
2019-02-25T16:40:19.437Z,19.82
2019-02-25T16:42:41.399Z,19.15
2019-02-25T16:45:06.993Z,22.48
2019-02-25T16:47:32.866Z,16.07
2019-02-25T16:49:50.352Z,14.60
2019-02-25T16:52:11.660Z,14.10
2019-02-25T16:54:32.239Z,22.55
2019-02-25T16:56:55.831Z,25.12
2019-02-25T16:59:18.495Z,21.45
2019-02-25T17:01:39.751Z,19.32
2019-02-25T17:04:00.886Z,24.67
2019-02-25T17:06:21.685Z,25.05
2019-02-25T17:08:42.285Z,24.18
2019-02-25T17:11:02.857Z,28.23
2019-02-25T17:13:23.409Z,27.65
2019-02-25T17:15:46.232Z,31.77
2019-02-25T17:18:06.723Z,35.55
2019-02-25T17:20:28.162Z,23.15
2019-02-25T17:22:49.931Z,17.92
2019-02-25T17:25:12.478Z,27.98
2019-02-25T17:27:32.817Z,29.32
2019-02-25T17:29:55.402Z,29.12
2019-02-25T17:32:16.767Z,32.23
2019-02-25T17:34:40.006Z,15.03
2019-02-25T17:37:01.565Z,28.23
2019-02-25T17:39:22.356Z,23.35
2019-02-25T17:41:44.447Z,26.35
2019-02-25T17:44:05.662Z,24.45
2019-02-25T17:46:28.770Z,24.90
2019-02-25T17:48:49.388Z,21.40
2019-02-25T17:51:10.120Z,31.25
2019-02-25T17:53:32.841Z,27.07
2019-02-25T17:55:53.816Z,23.12
2019-02-25T17:58:16.950Z,36.55
2019-02-25T18:00:42.563Z,31.62
2019-02-25T18:03:03.714Z,34.55
2019-02-25T18:05:24.492Z,40.33
2019-02-25T18:07:46.523Z,39.15
2019-02-25T18:10:10.720Z,39.67
2019-02-25T18:12:31.817Z,32.58
2019-02-25T18:14:54.772Z,34.10
2019-02-25T18:17:19.239Z,43.28
2019-02-25T18:19:41.730Z,36.13
2019-02-25T18:22:02.615Z,35.20
2019-02-25T18:24:26.766Z,38.38
2019-02-25T18:26:46.941Z,30.83
2019-02-25T18:29:09.303Z,33.13
2019-02-25T18:31:30.589Z,27.73
2019-02-25T18:33:52.936Z,41.53
2019-02-25T18:36:13.733Z,45.45
2019-02-25T18:38:34.380Z,40.83
2019-02-25T18:40:55.308Z,41.15
2019-02-25T18:43:16.006Z,36.15
2019-02-25T18:45:38.474Z,39.25
2019-02-25T18:47:58.513Z,29.30
2019-02-25T18:50:21.795Z,29.37
2019-02-25T18:52:44.751Z,33.60
2019-02-25T18:55:08.832Z,26.27
2019-02-25T18:57:29.584Z,31.00
2019-02-25T18:59:50.387Z,32.20
2019-02-25T19:02:12.820Z,33.35
2019-02-25T19:04:34.534Z,40.03
2019-02-25T19:06:54.624Z,24.60
2019-02-25T19:09:18.243Z,34.43
2019-02-25T19:11:40.445Z,28.98
2019-02-25T19:14:03.665Z,29.90
2019-02-25T19:16:24.676Z,36.10
2019-02-25T19:18:46.822Z,38.78
2019-02-25T19:21:09.227Z,34.50
2019-02-25T19:23:32.781Z,32.17
2019-02-25T19:25:52.136Z,29.82
2019-02-25T19:28:18.638Z,28.50
2019-02-25T19:30:37.180Z,29.53
2019-02-25T19:32:57.870Z,30.00
2019-02-25T19:35:18.854Z,26.70
2019-02-25T19:37:40.623Z,21.20
2019-02-25T19:40:05.311Z,38.63
2019-02-25T19:42:25.187Z,19.75
2019-02-25T19:44:46.328Z,20.92
2019-02-25T19:47:07.919Z,37.33
2019-02-25T19:49:28.540Z,37.10
2019-02-25T19:51:50.719Z,33.08
2019-02-25T19:54:13.435Z,25.15
2019-02-25T19:56:33.572Z,21.77
2019-02-25T19:58:54.450Z,33.73
2019-02-25T20:01:15.901Z,29.07
2019-02-25T20:03:37.575Z,29.27
2019-02-25T20:05:58.453Z,22.97
2019-02-25T20:08:19.086Z,27.50
2019-02-25T20:10:39.690Z,25.00
2019-02-25T20:13:00.352Z,25.80
2019-02-25T20:15:25.063Z,31.17
2019-02-25T20:17:48.843Z,40.65
2019-02-25T20:20:12.866Z,28.20
2019-02-25T20:22:36.635Z,31.93
2019-02-25T20:24:57.805Z,24.27
2019-02-25T20:27:18.489Z,32.63
2019-02-25T20:29:40.004Z,28.27
2019-02-25T20:32:01.310Z,33.63
2019-02-25T20:34:25.903Z,35.08
2019-02-25T20:36:48.326Z,34.18
2019-02-25T20:39:11.568Z,38.40
2019-02-25T20:41:32.168Z,30.95
2019-02-25T20:43:55.962Z,29.98
2019-02-25T20:46:14.548Z,24.13
2019-02-25T20:48:35.182Z,33.78
2019-02-25T20:50:55.757Z,26.65
2019-02-25T20:53:19.273Z,33.28
2019-02-25T20:57:58.743Z,28.12
2019-02-25T21:00:24.387Z,24.80
2019-02-25T21:02:45.097Z,26.02
2019-02-25T21:05:09.742Z,21.40
2019-02-25T21:07:31.743Z,28.32
2019-02-25T21:09:51.736Z,18.30
2019-02-25T21:12:13.187Z,28.95
2019-02-25T21:14:35.651Z,17.90
2019-02-25T21:19:19.679Z,24.55
2019-02-25T21:21:39.574Z,29.15
2019-02-25T21:24:01.918Z,26.65
2019-02-25T21:26:27.382Z,22.05
2019-02-25T21:28:46.462Z,26.52
2019-02-25T21:31:10.979Z,23.95
2019-02-25T21:33:30.353Z,24.47
2019-02-25T21:35:50.989Z,32.30
2019-02-25T21:38:12.683Z,22.50
2019-02-25T21:40:33.240Z,22.22
2019-02-25T21:42:56.676Z,21.33
2019-02-25T21:45:20.022Z,27.07
2019-02-25T21:47:39.608Z,17.48
2019-02-25T21:50:01.279Z,25.52
2019-02-25T21:52:23.771Z,22.95
2019-02-25T21:54:45.024Z,22.75
2019-02-25T21:57:09.758Z,20.72
2019-02-25T21:59:32.375Z,29.10
2019-02-25T22:01:55.231Z,24.47
2019-02-25T22:04:15.526Z,15.53
2019-02-25T22:06:36.919Z,25.67
2019-02-25T22:08:58.644Z,21.33
2019-02-25T22:11:22.170Z,22.55
2019-02-25T22:13:42.299Z,23.90
2019-02-25T22:16:03.557Z,20.72
2019-02-25T22:18:26.146Z,22.07
2019-02-25T22:23:09.017Z,18.73
2019-02-25T22:25:29.606Z,18.17
2019-02-25T22:27:50.387Z,18.62
2019-02-25T22:30:15.943Z,19.65
2019-02-25T22:32:38.222Z,19.77
2019-02-25T22:35:00.553Z,14.75
2019-02-25T22:37:22.735Z,18.70
2019-02-25T22:39:46.605Z,14.87
2019-02-25T22:42:09.617Z,18.60
2019-02-25T22:44:31.771Z,17.98
2019-02-25T22:46:52.328Z,21.05
2019-02-25T22:49:12.894Z,18.37
2019-02-25T22:51:35.813Z,18.48
2019-02-25T22:53:56.862Z,11.93
2019-02-25T22:56:18.398Z,18.23
2019-02-25T22:58:40.798Z,9.47
2019-02-25T23:01:04.689Z,17.62
2019-02-25T23:03:27.668Z,17.00
2019-02-25T23:05:50.338Z,17.82
2019-02-25T23:08:13.118Z,15.10
2019-02-25T23:10:33.518Z,16.05
2019-02-25T23:12:54.141Z,20.15
2019-02-25T23:15:15.024Z,21.33
2019-02-25T23:17:37.503Z,19.07
2019-02-25T23:19:59.973Z,12.65
2019-02-25T23:22:19.695Z,11.37
2019-02-25T23:24:43.404Z,19.85
2019-02-25T23:27:02.416Z,17.20
2019-02-25T23:29:27.850Z,19.82
2019-02-25T23:31:46.458Z,11.70
2019-02-25T23:34:07.990Z,18.03
2019-02-25T23:36:28.439Z,9.53
2019-02-25T23:38:50.666Z,18.32
2019-02-25T23:41:12.810Z,19.17
2019-02-25T23:43:37.786Z,15.50
2019-02-25T23:45:58.079Z,14.78
2019-02-25T23:48:19.356Z,11.43
2019-02-25T23:50:39.871Z,10.38
2019-02-25T23:53:00.397Z,13.78
2019-02-25T23:55:23.869Z,16.50
2019-02-25T23:57:42.821Z,10.60
